Cannon Falls, Minnesota
Current Conditions -  °F | °C
As of 4:05 PM on Wednesday 28 Jan 2015 (Local Time) from KSYN Reporting Station
Overcast Overcast  
Wind Chill: 30°   Ceiling: 1200
Heat Index: 34°   Visibility: 4mi
Dew Point: 28°   Wind: 5mph
Humidity: 81%   Direction: 120°ESE
Pressure: 29.78"   Gusts: NA
Location:  44.51°N, 92.91°W
Report Text: KSYN 282205Z AUTO 12004KT 4SM OVC012 01/M02 A2978 RMK AO2
Loading
Personal Weather Stations






























Interactive Weather Map New forecast layout! Learn more

10-Day Weather Forecast

Advertisements
Track Severe Weather on mobile